Latest  Newer  Older  Last 2 hours slideshow  Last 24 hours slideshow  Refresh every 5 minutes 
Current image  Latest image  Rain/snow radar  Cloud coverage sat images 

All time is UTC (add 2 hours to UTC in wintertime, 3 hours to UTC in DST for Latvia local time)

2020/01/24 11:20 EVRA 241120Z 26006KT 210V310 9999 -RA OVC014 07/05 Q1006 R18/290195 NOSIG
2020/01/24 11:20 EVLA 241120Z AUTO 26015KT 9999 FEW010/// BKN068/// OVC079/// 06/05 Q1009
2020/01/24 11:20 EVVA 241120Z AUTO 25015KT 9999 SCT012 SCT025 BKN060 07/05 Q1007
2020/01/24 11:20 EYKA 241120Z 25017KT 4000 -DZ BR OVC006 04/02 Q1012 R08/290095
2020/01/24 11:20 EYPA 241120Z 28008KT 220V320 9999 OVC010 06/05 Q1011 R19/2///95
2020/01/24 11:20 EYSA 241120Z 25017KT 9999 SCT009 BKN011 06/04 Q1009 R14L/29//95 R14R/29//95 GRN NOSIG
2020/01/24 11:20 EYVI 241120Z 26015KT 7000 -DZ OVC005 03/02 Q1011 R19/2/0195 TEMPO 3000 DZ BR
2020/01/24 10:50 EEKA 241050Z 26010G20KT 210V300 9999 BKN011 06/03 Q1001
2020/01/24 10:50 EEKE 241050Z 28010KT 220V310 9999 BKN012 OVC020 06/04 Q1003 R17/190095
2020/01/24 10:50 EEPU 241050Z 24009KT 9999 OVC012 06/04 Q1001
2020/01/24 11:20 EETN 241120Z 26008KT 9999 BKN011 05/03 Q0999 R08/290195 TEMPO BKN009
2020/01/24 10:50 EETU 241050Z 26014KT 9999 OVC018 06/03 Q1001
   RIGA AIRPORT     EVRA               56 55N  023 58E   10   X     T          6 LV
   LIEPAJA INTL     EVLA        26406  56 31N  021 06E    4   X                8 LV
   VENTPILS         EVVA               57 21N  021 33E    6   X                8 LV
   KAUNAS           EYKA               54 54N  023 55E   77   X     T          6 LT
   PALANGA INTL     EYPA               55 55N  021 03E   10   X                6 LT
   SIAULIAI INTL    EYSA               55 54N  023 24E  135   X     T          6 LT
   VILNIUS INTL     EYVI        26730  54 38N  025 17E  197   X     T          6 LT
   KARDLA           EEKA        26116  58 59N  022 50E    4   X                8 EE
   KURESSAARE       EEKE               58 14N  022 31E    4   X                8 EE
   PARNU            EEPU               58 25N  024 28E   14   X                8 EE
   TALLINN          EETN        26038  59 24N  024 49E   40   X     T          8 EE
   TARTU            EETU               58 19N  026 41E   67   X                8 EE